createdAt,value
2019-03-23T00:07:53.865Z,8.58
2019-03-23T00:10:23.907Z,8.60
2019-03-23T00:12:53.867Z,8.61
2019-03-23T00:15:23.802Z,8.59
2019-03-23T00:17:53.812Z,8.59
2019-03-23T00:20:23.683Z,8.63
2019-03-23T00:22:53.598Z,8.66
2019-03-23T00:25:23.566Z,8.67
2019-03-23T00:27:53.508Z,8.66
2019-03-23T00:30:23.470Z,8.63
2019-03-23T00:32:53.520Z,8.63
2019-03-23T00:35:23.464Z,8.62
2019-03-23T00:37:53.398Z,8.62
2019-03-23T00:40:42.321Z,8.60
2019-03-23T00:43:12.275Z,8.59
2019-03-23T00:45:42.222Z,8.60
2019-03-23T00:48:12.168Z,8.61
2019-03-23T00:50:42.384Z,8.62
2019-03-23T00:53:12.312Z,8.62
2019-03-23T00:55:42.624Z,8.59
2019-03-23T00:58:26.300Z,8.62
2019-03-23T01:01:03.255Z,8.61
2019-03-23T01:06:34.443Z,8.59
2019-03-23T01:09:08.195Z,8.58
2019-03-23T01:11:38.278Z,8.61
2019-03-23T01:14:09.907Z,8.63
2019-03-23T01:16:39.849Z,8.64
2019-03-23T01:19:10.307Z,8.66
2019-03-23T01:21:40.230Z,8.69
2019-03-23T01:24:10.190Z,8.69
2019-03-23T01:26:40.156Z,8.70
2019-03-23T01:29:10.588Z,8.70
2019-03-23T01:31:40.512Z,8.71
2019-03-23T01:34:10.571Z,8.72
2019-03-23T01:36:40.488Z,8.75
2019-03-23T01:39:12.377Z,8.78
2019-03-23T01:41:42.349Z,8.80
2019-03-23T01:44:12.331Z,8.81
2019-03-23T01:46:42.247Z,8.83
2019-03-23T01:52:03.884Z,8.82
2019-03-23T01:57:09.447Z,8.80
2019-03-23T02:02:20.821Z,8.83
2019-03-23T02:10:12.206Z,8.87
2019-03-23T02:13:00.808Z,8.84
2019-03-23T02:15:30.766Z,8.82
2019-03-23T02:18:19.576Z,8.84
2019-03-23T02:20:49.625Z,8.82
2019-03-23T02:23:19.541Z,8.81
2019-03-23T02:25:49.530Z,8.79
2019-03-23T02:28:19.497Z,8.78
2019-03-23T02:30:49.490Z,8.81
2019-03-23T02:33:19.883Z,8.83
2019-03-23T02:38:30.182Z,8.88
2019-03-23T02:41:00.197Z,8.90
2019-03-23T02:43:30.147Z,8.90
2019-03-23T02:46:00.144Z,8.90
2019-03-23T02:48:40.147Z,8.90
2019-03-23T02:51:10.184Z,8.89
2019-03-23T02:53:40.173Z,8.93
2019-03-23T02:56:10.142Z,8.94
2019-03-23T02:58:40.193Z,8.93
2019-03-23T03:01:10.116Z,8.91
2019-03-23T03:03:41.060Z,8.88
2019-03-23T03:06:21.637Z,8.89
2019-03-23T03:08:51.718Z,8.88
2019-03-23T03:11:21.686Z,8.88
2019-03-23T03:16:47.077Z,8.93
2019-03-23T03:19:18.633Z,8.94
2019-03-23T03:21:48.564Z,8.97
2019-03-23T03:26:54.407Z,9.04
2019-03-23T03:29:24.493Z,9.02
2019-03-23T03:31:54.537Z,9.07
2019-03-23T03:34:24.480Z,9.08
2019-03-23T03:36:56.015Z,9.09
2019-03-23T03:39:25.950Z,9.08
2019-03-23T03:42:03.403Z,9.08
2019-03-23T03:47:34.691Z,9.08
2019-03-23T03:52:47.348Z,9.15
2019-03-23T03:55:17.271Z,9.16
2019-03-23T03:57:47.228Z,9.17
2019-03-23T04:06:02.021Z,9.19
2019-03-23T04:08:31.951Z,9.21
2019-03-23T04:11:01.904Z,9.28
2019-03-23T04:13:31.869Z,9.31
2019-03-23T04:16:01.933Z,9.35
2019-03-23T04:21:21.001Z,9.44
2019-03-23T04:23:51.083Z,9.46
2019-03-23T04:26:21.201Z,9.48
2019-03-23T04:28:51.894Z,9.50
2019-03-23T04:31:21.795Z,9.53
2019-03-23T04:33:51.746Z,9.55
2019-03-23T04:36:40.561Z,9.57
2019-03-23T04:39:10.550Z,9.59
2019-03-23T04:41:40.538Z,9.60
2019-03-23T04:44:12.799Z,9.61
2019-03-23T04:46:44.014Z,9.62
2019-03-23T04:49:15.957Z,9.67
2019-03-23T04:51:46.019Z,9.67
2019-03-23T04:54:18.011Z,9.72
2019-03-23T04:56:48.913Z,9.74
2019-03-23T04:59:19.559Z,9.74
2019-03-23T05:01:49.536Z,9.75
2019-03-23T05:04:21.218Z,9.78
2019-03-23T05:06:51.147Z,9.79
2019-03-23T05:09:21.095Z,9.81
2019-03-23T05:14:26.748Z,9.84
2019-03-23T05:16:56.733Z,9.84
2019-03-23T05:19:26.665Z,9.89
2019-03-23T05:22:17.946Z,9.91
2019-03-23T05:27:41.728Z,9.93
2019-03-23T05:30:12.364Z,9.95
2019-03-23T05:32:42.376Z,10.01
2019-03-23T05:35:12.931Z,10.02
2019-03-23T05:37:42.991Z,10.05
2019-03-23T05:40:13.126Z,10.06
2019-03-23T05:42:43.269Z,10.09
2019-03-23T05:45:13.943Z,10.11
2019-03-23T05:47:47.109Z,10.12
2019-03-23T05:50:17.860Z,10.14
2019-03-23T05:52:47.845Z,10.16
2019-03-23T05:55:19.215Z,10.18
2019-03-23T05:57:49.171Z,10.17
2019-03-23T06:00:20.665Z,10.17
2019-03-23T06:02:50.619Z,10.18
2019-03-23T06:05:24.675Z,10.17
2019-03-23T06:07:55.559Z,10.19
2019-03-23T06:10:25.617Z,10.26
2019-03-23T06:12:55.687Z,10.31
2019-03-23T06:15:25.871Z,10.39
2019-03-23T06:18:14.670Z,10.43
2019-03-23T06:23:46.622Z,10.50
2019-03-23T06:26:16.853Z,10.50
2019-03-23T06:28:46.885Z,10.56
2019-03-23T06:31:16.881Z,10.58
2019-03-23T06:33:47.025Z,10.62
2019-03-23T06:36:16.972Z,10.68
2019-03-23T06:38:47.092Z,10.73
2019-03-23T06:41:35.923Z,10.79
2019-03-23T06:46:41.692Z,10.85
2019-03-23T06:49:30.533Z,10.84
2019-03-23T06:52:11.814Z,10.85
2019-03-23T06:54:41.853Z,10.82
2019-03-23T06:57:11.851Z,10.74
2019-03-23T06:59:41.788Z,10.69
2019-03-23T07:02:17.628Z,10.62
2019-03-23T07:04:47.997Z,10.61
2019-03-23T07:07:18.005Z,10.60
2019-03-23T07:09:48.234Z,10.60
2019-03-23T07:15:19.145Z,10.67
2019-03-23T07:17:40.600Z,10.69
2019-03-23T07:20:11.917Z,10.76
2019-03-23T07:22:41.906Z,10.76
2019-03-23T07:25:51.175Z,10.73
2019-03-23T07:28:32.051Z,10.70
2019-03-23T07:31:02.181Z,10.62
2019-03-23T07:33:32.291Z,10.58
2019-03-23T07:36:02.285Z,10.53
2019-03-23T07:38:32.320Z,10.49
2019-03-23T07:41:02.240Z,10.43
2019-03-23T07:43:32.272Z,10.40
2019-03-23T07:46:02.672Z,10.40
2019-03-23T07:48:32.696Z,10.39
2019-03-23T07:51:21.294Z,10.37
2019-03-23T07:56:45.675Z,10.27
2019-03-23T07:59:15.633Z,10.23
2019-03-23T08:01:45.660Z,10.20
2019-03-23T08:04:34.336Z,10.16
2019-03-23T08:07:04.777Z,10.11
2019-03-23T08:09:37.856Z,10.05
2019-03-23T08:12:09.722Z,10.11
2019-03-23T08:17:34.316Z,10.20
2019-03-23T08:20:04.703Z,10.21
2019-03-23T08:22:53.558Z,10.23
2019-03-23T08:25:23.529Z,10.22
2019-03-23T08:27:53.442Z,10.23
2019-03-23T08:30:23.410Z,10.27
2019-03-23T08:32:53.372Z,10.31
2019-03-23T08:35:26.182Z,10.45
2019-03-23T08:37:56.398Z,10.63
2019-03-23T08:40:26.388Z,10.79
2019-03-23T08:42:56.389Z,10.82
2019-03-23T08:45:26.409Z,10.90
2019-03-23T08:53:28.817Z,11.40
2019-03-23T08:55:58.873Z,11.43
2019-03-23T08:58:43.680Z,11.46
2019-03-23T09:01:01.932Z,11.55
2019-03-23T09:06:22.632Z,11.87
2019-03-23T09:11:36.216Z,12.03
2019-03-23T09:14:08.612Z,11.93
2019-03-23T09:16:38.567Z,11.90
2019-03-23T09:19:08.539Z,11.97
2019-03-23T09:21:38.477Z,12.02
2019-03-23T09:24:27.179Z,12.10
2019-03-23T09:26:57.111Z,12.24
2019-03-23T09:29:27.114Z,12.31
2019-03-23T09:32:15.922Z,12.30
2019-03-23T09:34:46.179Z,12.07
2019-03-23T09:37:16.188Z,12.09
2019-03-23T09:39:46.205Z,12.27
2019-03-23T09:42:16.270Z,12.38
2019-03-23T09:44:46.200Z,12.42
2019-03-23T09:47:26.785Z,12.45
2019-03-23T09:49:56.876Z,12.32
2019-03-23T09:52:27.055Z,12.13
2019-03-23T09:57:59.072Z,11.92
2019-03-23T10:00:31.339Z,12.00
2019-03-23T10:03:01.260Z,12.22
2019-03-23T10:05:31.211Z,12.32
2019-03-23T10:08:01.148Z,12.38
2019-03-23T10:10:31.084Z,12.54
2019-03-23T10:13:01.123Z,12.72
2019-03-23T10:15:31.077Z,12.87
2019-03-23T10:18:01.743Z,12.95
2019-03-23T10:20:32.817Z,13.00
2019-03-23T10:23:02.863Z,12.81
2019-03-23T10:25:54.241Z,12.67
2019-03-23T10:28:24.265Z,12.61
2019-03-23T10:30:54.234Z,12.57
2019-03-23T10:36:12.155Z,12.57
2019-03-23T10:38:42.361Z,12.44
2019-03-23T10:41:12.380Z,12.36
2019-03-23T10:43:42.282Z,12.23
2019-03-23T10:46:12.255Z,12.03
2019-03-23T10:48:42.292Z,12.05
2019-03-23T10:51:12.265Z,12.05
2019-03-23T10:53:42.302Z,12.01
2019-03-23T10:56:12.250Z,11.93
2019-03-23T10:58:52.937Z,11.95
2019-03-23T11:01:22.952Z,12.01
2019-03-23T11:03:52.896Z,11.97
2019-03-23T11:06:23.063Z,11.88
2019-03-23T11:08:53.008Z,11.86
2019-03-23T11:11:26.049Z,11.92
2019-03-23T11:14:08.183Z,12.01
2019-03-23T11:16:28.022Z,11.96
2019-03-23T11:19:00.739Z,11.90
2019-03-23T11:21:33.567Z,11.95
2019-03-23T11:24:03.497Z,11.91
2019-03-23T11:26:33.597Z,11.94
2019-03-23T11:29:03.531Z,11.99
2019-03-23T11:31:33.457Z,12.00
2019-03-23T11:34:03.494Z,12.01
2019-03-23T11:39:22.604Z,12.14
2019-03-23T11:41:52.568Z,12.17
2019-03-23T11:44:22.519Z,12.23
2019-03-23T11:46:52.504Z,12.33
2019-03-23T11:49:22.421Z,12.43
2019-03-23T11:51:52.387Z,12.40
2019-03-23T11:54:22.385Z,12.42
2019-03-23T11:56:52.479Z,12.51
2019-03-23T11:59:23.263Z,12.57
2019-03-23T12:01:53.250Z,12.61
2019-03-23T12:04:24.915Z,12.60
2019-03-23T12:06:54.995Z,12.59
2019-03-23T12:12:22.985Z,12.64
2019-03-23T12:17:29.079Z,12.69
2019-03-23T12:19:59.117Z,12.64
2019-03-23T12:22:29.048Z,12.55
2019-03-23T12:25:01.158Z,12.44
2019-03-23T12:27:31.300Z,12.35
2019-03-23T12:30:07.043Z,12.41
2019-03-23T12:35:35.109Z,12.55
2019-03-23T12:38:06.169Z,12.53
2019-03-23T12:40:38.370Z,12.46
2019-03-23T12:45:44.074Z,12.39
2019-03-23T12:51:08.846Z,12.36
2019-03-23T12:53:38.811Z,12.36
2019-03-23T12:56:08.717Z,12.41
2019-03-23T12:58:38.807Z,12.38
2019-03-23T13:01:19.832Z,12.35
2019-03-23T13:03:49.779Z,12.31
2019-03-23T13:06:19.710Z,12.27
2019-03-23T13:08:49.684Z,12.25
2019-03-23T13:11:38.521Z,12.30
2019-03-23T13:17:04.880Z,12.35
2019-03-23T13:19:53.493Z,12.32
2019-03-23T13:22:34.570Z,12.34
2019-03-23T13:28:10.207Z,12.25
2019-03-23T13:30:40.177Z,12.22
2019-03-23T13:33:10.165Z,12.20
2019-03-23T13:38:15.588Z,12.22
2019-03-23T13:40:57.218Z,12.18
2019-03-23T13:43:27.223Z,12.12
2019-03-23T13:45:57.172Z,12.02
2019-03-23T13:48:27.240Z,11.97
2019-03-23T13:50:57.198Z,11.94
2019-03-23T13:53:27.203Z,11.97
2019-03-23T13:58:52.134Z,11.89
2019-03-23T14:01:22.089Z,11.85
2019-03-23T14:03:52.062Z,11.85
2019-03-23T14:06:22.031Z,11.85
2019-03-23T14:11:29.099Z,11.76
2019-03-23T14:14:09.873Z,11.73
2019-03-23T14:19:21.567Z,11.65
2019-03-23T14:21:51.485Z,11.60
2019-03-23T14:24:21.432Z,11.60
2019-03-23T14:26:51.411Z,11.56
2019-03-23T14:29:21.336Z,11.53
2019-03-23T14:32:10.204Z,11.46
2019-03-23T14:34:40.335Z,11.43
2019-03-23T14:37:10.267Z,11.38
2019-03-23T14:39:40.261Z,11.35
2019-03-23T14:42:10.163Z,11.31
2019-03-23T14:44:40.079Z,11.25
2019-03-23T14:47:10.056Z,11.18
2019-03-23T14:49:39.967Z,11.18
2019-03-23T14:52:09.870Z,11.16
2019-03-23T14:57:34.201Z,11.04
2019-03-23T15:02:40.468Z,11.03
2019-03-23T15:05:10.542Z,10.98
2019-03-23T15:07:40.503Z,10.93
2019-03-23T15:10:30.724Z,10.89
2019-03-23T15:13:00.809Z,10.87
2019-03-23T15:15:42.313Z,10.81
2019-03-23T15:21:07.025Z,10.71
2019-03-23T15:23:36.986Z,10.66
2019-03-23T15:26:21.108Z,10.62
2019-03-23T15:28:38.703Z,10.59
2019-03-23T15:31:08.627Z,10.57
2019-03-23T15:33:38.560Z,10.58
2019-03-23T15:36:27.393Z,10.57
2019-03-23T15:38:57.425Z,10.53
2019-03-23T15:41:27.406Z,10.50
2019-03-23T15:43:57.376Z,10.48
2019-03-23T15:46:46.043Z,10.43
2019-03-23T15:49:16.125Z,10.37
2019-03-23T15:51:46.251Z,10.29
2019-03-23T15:54:16.203Z,10.20
2019-03-23T15:56:46.218Z,10.10
2019-03-23T15:59:16.272Z,10.00
2019-03-23T16:01:46.270Z,9.92
2019-03-23T16:04:16.333Z,9.84
2019-03-23T16:06:46.366Z,9.78
2019-03-23T16:09:16.332Z,9.73
2019-03-23T16:11:46.380Z,9.69
2019-03-23T16:14:16.363Z,9.70
2019-03-23T16:19:50.887Z,9.61
2019-03-23T16:22:20.891Z,9.65
2019-03-23T16:24:50.856Z,9.76
2019-03-23T16:27:21.173Z,9.82
2019-03-23T16:29:51.103Z,9.83
2019-03-23T16:32:21.018Z,9.74
2019-03-23T16:34:50.999Z,9.61
2019-03-23T16:37:20.901Z,9.46
2019-03-23T16:39:50.827Z,9.32
2019-03-23T16:42:20.978Z,9.16
2019-03-23T16:44:50.862Z,9.02
2019-03-23T16:47:20.772Z,8.93
2019-03-23T16:49:50.692Z,8.82
2019-03-23T16:52:20.602Z,8.72
2019-03-23T16:54:50.526Z,8.61
2019-03-23T16:57:20.468Z,8.50
2019-03-23T16:59:50.392Z,8.41
2019-03-23T17:02:20.310Z,8.32
2019-03-23T17:04:50.256Z,8.25
2019-03-23T17:07:22.962Z,8.17
2019-03-23T17:09:52.872Z,8.10
2019-03-23T17:12:22.835Z,8.05
2019-03-23T17:14:52.837Z,7.97
2019-03-23T17:17:22.774Z,7.91
2019-03-23T17:20:04.059Z,7.85
2019-03-23T17:22:34.410Z,7.80
2019-03-23T17:25:04.650Z,7.73
2019-03-23T17:27:34.819Z,7.69
2019-03-23T17:30:25.167Z,7.65
2019-03-23T17:32:55.143Z,7.61
2019-03-23T17:35:25.229Z,7.56
2019-03-23T17:37:55.161Z,7.49
2019-03-23T17:40:25.135Z,7.45
2019-03-23T17:43:05.381Z,7.43
2019-03-23T17:48:09.612Z,7.33
2019-03-23T17:53:37.966Z,7.26
2019-03-23T17:56:07.918Z,7.22
2019-03-23T17:58:38.507Z,7.17
2019-03-23T18:01:18.898Z,7.14
2019-03-23T18:03:40.269Z,7.09
2019-03-23T18:06:10.193Z,7.06
2019-03-23T18:08:40.190Z,7.00
2019-03-23T18:11:10.105Z,6.97
2019-03-23T18:13:40.266Z,6.94
2019-03-23T18:18:45.273Z,6.89
2019-03-23T18:21:39.486Z,6.85
2019-03-23T18:24:06.858Z,6.83
2019-03-23T18:26:36.773Z,6.77
2019-03-23T18:29:06.864Z,6.76
2019-03-23T18:31:59.481Z,6.72
2019-03-23T18:37:42.336Z,6.66
2019-03-23T18:40:22.724Z,6.62
2019-03-23T18:42:52.688Z,6.58
2019-03-23T18:45:22.644Z,6.55
2019-03-23T18:47:52.573Z,6.51
2019-03-23T18:50:22.727Z,6.50
2019-03-23T18:52:52.681Z,6.47
2019-03-23T18:55:22.760Z,6.42
2019-03-23T18:57:52.755Z,6.39
2019-03-23T19:00:55.692Z,6.37
2019-03-23T19:03:13.988Z,6.34
2019-03-23T19:05:44.098Z,6.33
2019-03-23T19:08:33.014Z,6.30
2019-03-23T19:11:03.394Z,6.30
2019-03-23T19:13:37.751Z,6.27
2019-03-23T19:16:13.050Z,6.23
2019-03-23T19:21:38.041Z,6.18
2019-03-23T19:27:02.136Z,6.13
2019-03-23T19:29:32.048Z,6.08
2019-03-23T19:32:02.080Z,6.07
2019-03-23T19:39:54.961Z,6.01
2019-03-23T19:42:24.928Z,5.99
2019-03-23T19:44:55.028Z,5.98
2019-03-23T19:47:43.898Z,5.96
2019-03-23T19:53:15.425Z,5.95
2019-03-23T19:55:48.103Z,5.91
2019-03-23T19:58:18.011Z,5.90
2019-03-23T20:00:48.229Z,5.83
2019-03-23T20:03:19.253Z,5.85
2019-03-23T20:06:01.008Z,5.83
2019-03-23T20:08:31.081Z,5.81
2019-03-23T20:11:01.357Z,5.77
2019-03-23T20:13:33.451Z,5.74
2019-03-23T20:16:03.384Z,5.74
2019-03-23T20:18:33.380Z,5.73
2019-03-23T20:21:03.643Z,5.71
2019-03-23T20:23:36.069Z,5.68
2019-03-23T20:26:11.950Z,5.66
2019-03-23T20:28:44.636Z,5.64
2019-03-23T20:31:57.237Z,5.62
2019-03-23T20:39:48.550Z,5.52
2019-03-23T20:42:18.549Z,5.53
2019-03-23T20:44:48.478Z,5.52
2019-03-23T20:47:21.414Z,5.52
2019-03-23T20:49:51.454Z,5.46
2019-03-23T20:52:21.408Z,5.47
2019-03-23T20:54:51.494Z,5.41
2019-03-23T20:57:24.230Z,5.44
2019-03-23T20:59:53.216Z,5.43
2019-03-23T21:03:02.245Z,5.40
2019-03-23T21:05:34.045Z,5.38
2019-03-23T21:13:19.451Z,5.31
2019-03-23T21:15:49.383Z,5.29
2019-03-23T21:18:19.313Z,5.29
2019-03-23T21:20:49.369Z,5.29
2019-03-23T21:23:38.101Z,5.26
2019-03-23T21:26:08.140Z,5.19
2019-03-23T21:28:38.068Z,5.20
2019-03-23T21:31:08.095Z,5.19
2019-03-23T21:33:39.038Z,5.16
2019-03-23T21:36:10.052Z,5.10
2019-03-23T21:38:39.993Z,5.13
2019-03-23T21:43:45.848Z,5.12
2019-03-23T21:46:16.034Z,5.14
2019-03-23T21:48:46.102Z,5.14
2019-03-23T21:51:53.892Z,5.13
2019-03-23T21:54:23.937Z,5.13
2019-03-23T21:56:53.917Z,5.10
2019-03-23T21:59:25.458Z,5.10
2019-03-23T22:01:55.579Z,5.15
2019-03-23T22:04:25.561Z,5.15
2019-03-23T22:06:55.740Z,5.13
2019-03-23T22:09:36.467Z,5.13
2019-03-23T22:12:06.645Z,5.11
2019-03-23T22:14:41.519Z,5.08
2019-03-23T22:17:08.280Z,5.01
2019-03-23T22:19:56.904Z,5.01
2019-03-23T22:22:31.848Z,4.97
2019-03-23T22:25:01.916Z,4.90
2019-03-23T22:27:31.928Z,4.90
2019-03-23T22:30:02.143Z,4.92
2019-03-23T22:32:32.311Z,4.92
2019-03-23T22:35:02.282Z,4.92
2019-03-23T22:40:40.189Z,4.89
2019-03-23T22:43:31.188Z,4.81
2019-03-23T22:48:39.409Z,4.87
2019-03-23T22:51:28.295Z,4.84
2019-03-23T22:54:09.080Z,4.84
2019-03-23T22:56:39.152Z,4.82
2019-03-23T22:59:09.155Z,4.81
2019-03-23T23:01:58.080Z,4.80
2019-03-23T23:04:28.164Z,4.80
2019-03-23T23:06:58.199Z,4.80
2019-03-23T23:12:24.063Z,4.81
2019-03-23T23:15:03.974Z,4.81
2019-03-23T23:17:25.832Z,4.80
2019-03-23T23:19:55.777Z,4.80
2019-03-23T23:25:22.692Z,4.79
2019-03-23T23:28:03.606Z,4.79
2019-03-23T23:33:28.133Z,4.79
2019-03-23T23:36:00.271Z,4.78
2019-03-23T23:38:32.643Z,4.78
2019-03-23T23:41:05.629Z,4.76
2019-03-23T23:43:54.365Z,4.73
2019-03-23T23:46:24.299Z,4.73
2019-03-23T23:48:54.318Z,4.68
2019-03-23T23:51:24.932Z,4.68
2019-03-23T23:53:54.867Z,4.73
2019-03-23T23:56:25.420Z,4.73
2019-03-23T23:59:14.145Z,4.75
